European Causeway — C6RG7 — position and weather

sailwx.info

Track history (hours):
 
Tides and Currents Weather Stations Pressure Air Temp Water Temp Dewpoint Dewpoint Depression Visibility Wind Speed Wind Dir Waves Ship Positions

European Causeway

Operator: P & O Irish Sea

Last reported at 2014-Jul-25 15:29 UTC. Time now 2014-Jul-25 16:04 UTC.
Position N 54°58' W 005°01'.

Length 165 m; draft 5.5 m.

Type: Passenger vessel. MMSI: 311027000.

Date/timePositionNaut miles runAvg speedWind from/ knotsBaromVisibWave heightAir tempDewpointWater temp
2014-Jul-25 15:29N 54°58' W 005°01'0 0.0
2014-Jul-25 14:33N 54°58' W 005°01'1312.5
2014-Jul-25 13:33N 54°58' W 005°23'1615.9
2014-Jul-25 12:33N 54°51' W 005°48'0 0.1
2014-Jul-25 11:33N 54°51' W 005°48'1615.6
2014-Jul-25 10:33N 54°58' W 005°24'1311.6
2014-Jul-25 09:25N 54°58' W 005°01'0 0.0
2014-Jul-25 08:33N 54°58' W 005°01'1010.3
2014-Jul-25 07:33N 54°58' W 005°19'1817.7
2014-Jul-25 06:32N 54°51' W 005°48'0 0.2
2014-Jul-25 05:33N 54°51' W 005°48'6 6.1
2014-Jul-25 04:33N 54°54' W 005°39'2119.1
2014-Jul-25 03:28N 55°01' W 005°04'4 3.9
2014-Jul-25 02:33N 54°58' W 005°01'0 0.0
2014-Jul-25 01:33N 54°58' W 005°01'7 6.5
2014-Jul-25 00:32N 55°01' W 005°11'1717.9
2014-Jul-24 23:34N 54°54' W 005°39'6 5.4
2014-Jul-24 22:28N 54°51' W 005°48'0 0.0
2014-Jul-24 21:28N 54°51' W 005°48'5 5.6
2014-Jul-24 20:33N 54°54' W 005°40'1817.9
2014-Jul-24 19:34N 55°01' W 005°12'7 7.0
2014-Jul-24 18:30N 54°58' W 005°01'0 0.0
2014-Jul-24 17:33N 54°58' W 005°01'1211.9
2014-Jul-24 16:33N 54°58' W 005°22'1716.6
2014-Jul-24 15:34N 54°51' W 005°48'0 0.1
2014-Jul-24 14:33N 54°51' W 005°48'1514.7
2014-Jul-24 13:34N 54°58' W 005°26'1414.0
2014-Jul-24 12:33N 54°58' W 005°01'0 0.0
2014-Jul-24 11:33N 54°58' W 005°01'1212.2
2014-Jul-24 10:33N 54°58' W 005°22'1616.2
2014-Jul-24 09:34N 54°51' W 005°48'0 0.1
2014-Jul-24 08:33N 54°51' W 005°48'1514.6
2014-Jul-24 07:33N 54°58' W 005°26'1413.7
2014-Jul-24 06:32N 54°58' W 005°01'0 0.0
2014-Jul-24 05:33N 54°58' W 005°01'5 5.1
2014-Jul-24 04:33N 55°02' W 005°07'1818.0
2014-Jul-24 03:33N 54°54' W 005°35'8 8.0
2014-Jul-24 02:33N 54°51' W 005°48'0 0.0
2014-Jul-24 01:33N 54°51' W 005°48'6 5.9
2014-Jul-24 00:33N 54°54' W 005°39'1818.0
2014-Jul-23 23:34N 55°02' W 005°11'7 7.0
2014-Jul-23 22:33N 54°58' W 005°01'0 0.0
2014-Jul-23 21:31N 54°58' W 005°01'5 5.7
2014-Jul-23 20:33N 55°01' W 005°08'1717.3
2014-Jul-23 19:33N 54°54' W 005°35'8 7.8
2014-Jul-23 18:32N 54°51' W 005°48'0 0.0
2014-Jul-23 17:33N 54°51' W 005°48'1514.7
2014-Jul-23 16:33N 54°58' W 005°25'1414.0
2014-Jul-23 15:33N 54°58' W 005°01'0 0.1
2014-Jul-23 14:33N 54°58' W 005°01'1212.0
2014-Jul-23 13:33N 54°58' W 005°22'1616.3
2014-Jul-23 12:33N 54°51' W 005°48'0 0.1
2014-Jul-23 11:33N 54°51' W 005°48'1615.6
2014-Jul-23 10:34N 54°58' W 005°24'1312.9
2014-Jul-23 09:32N 54°58' W 005°01'0 0.0
2014-Jul-23 08:34N 54°58' W 005°01'1111.2
2014-Jul-23 07:33N 54°58' W 005°20'1717.1
2014-Jul-23 06:33N 54°51' W 005°48'0 0.1
2014-Jul-23 05:32N 54°51' W 005°48'6 6.0
2014-Jul-23 04:33N 54°54' W 005°39'2119.6
2014-Jul-23 03:30N 55°02' W 005°06'5 5.0
2014-Jul-23 02:33N 54°58' W 005°01'0 0.0
2014-Jul-23 01:33N 54°58' W 005°01'5 5.5
2014-Jul-23 00:34N 55°02' W 005°08'1818.0
2014-Jul-22 23:33N 54°54' W 005°36'7 7.4
2014-Jul-22 22:33N 54°51' W 005°48'0 0.0
2014-Jul-22 21:33N 54°51' W 005°48'5 5.1
2014-Jul-22 20:33N 54°54' W 005°41'1817.8
2014-Jul-22 19:33N 55°03' W 005°14'9 6.9
2014-Jul-22 18:18N 54°58' W 005°01'0 0.1
2014-Jul-22 17:34N 54°58' W 005°01'1313.5
2014-Jul-22 16:33N 54°57' W 005°24'1514.9
2014-Jul-22 15:33N 54°51' W 005°48'1 1.0
2014-Jul-22 14:33N 54°52' W 005°48'1616.2
2014-Jul-22 13:33N 55°01' W 005°24'1413.2
2014-Jul-22 12:31N 54°58' W 005°01'0 0.4
2014-Jul-22 11:24N 54°58' W 005°02'1314.3
2014-Jul-22 10:31N 54°57' W 005°24'1516.0
2014-Jul-22 09:33N 54°51' W 005°48'0 0.1
2014-Jul-22 08:33N 54°51' W 005°48'1313.1
2014-Jul-22 07:34N 54°57' W 005°28'1514.9
2014-Jul-22 06:33N 54°58' W 005°02'1 1.0
2014-Jul-22 05:30N 54°58' W 005°01'5 5.1
2014-Jul-22 04:31N 55°02' W 005°07'1617.1
2014-Jul-22 03:34N 54°55' W 005°33'10 9.7
2014-Jul-22 02:33N 54°51' W 005°48'0 0.0
2014-Jul-22 01:33N 54°51' W 005°48'5 5.4
2014-Jul-22 00:33N 54°54' W 005°40'1817.5
2014-Jul-21 23:33N 55°01' W 005°12'7 7.3
2014-Jul-21 22:33N 54°58' W 005°01'0 0.0
2014-Jul-21 21:33N 54°58' W 005°01'6 6.2
2014-Jul-21 20:34N 55°01' W 005°10'517.6
2014-Jul-21 20:18N 54°59' W 005°17'1317.2
2014-Jul-21 19:33N 54°54' W 005°37'7 7.0
2014-Jul-21 18:33N 54°51' W 005°48'3 2.8
2014-Jul-21 17:33N 54°53' W 005°44'2221.9
2014-Jul-21 16:33N 55°02' W 005°10'7 6.3
2014-Jul-21 15:32N 54°58' W 005°01'0 0.0
2014-Jul-21 14:33N 54°58' W 005°01'1312.6
2014-Jul-21 13:34N 54°58' W 005°23'1616.0
2014-Jul-21 12:34N 54°51' W 005°48'0 0.0
2014-Jul-21 11:33N 54°51' W 005°48'1615.5
2014-Jul-21 10:34N 54°59' W 005°25'1413.2
2014-Jul-21 09:31N 54°58' W 005°01'0 0.0
2014-Jul-21 08:34N 54°58' W 005°01'1212.3
2014-Jul-21 07:34N 54°58' W 005°22'1616.2
2014-Jul-21 06:33N 54°51' W 005°48'0 0.0
2014-Jul-21 05:33N 54°51' W 005°48'2 2.3
2014-Jul-21 04:33N 54°52' W 005°45'2020.2
2014-Jul-21 03:33N 55°01' W 005°13'8 7.7
2014-Jul-21 02:33N 54°58' W 005°01'0 0.0
2014-Jul-21 01:33N 54°58' W 005°01'0 0.0
2014-Jul-21 00:34N 54°58' W 005°01'6 5.8
2014-Jul-20 23:33N 55°01' W 005°09'1817.6
2014-Jul-20 22:33N 54°54' W 005°37'7 7.2
2014-Jul-20 21:33N 54°51' W 005°48'4 3.8
2014-Jul-20 20:34N 54°53' W 005°43'1818.0
2014-Jul-20 19:33N 55°01' W 005°14'8 8.3
2014-Jul-20 18:33N 54°58' W 005°01'0 0.0
2014-Jul-20 17:33N 54°58' W 005°01'1312.6
2014-Jul-20 16:33N 54°57' W 005°23'1615.7
2014-Jul-20 15:33N 54°51' W 005°48'0 0.0
2014-Jul-20 14:34N 54°51' W 005°48'1414.3
2014-Jul-20 13:33N 54°58' W 005°26'1414.0
2014-Jul-20 12:32N 54°58' W 005°01'0 0.1
2014-Jul-20 11:33N 54°58' W 005°01'1212.4
2014-Jul-20 10:33N 54°58' W 005°23'1615.9
2014-Jul-20 09:33N 54°51' W 005°48'0 0.0
2014-Jul-20 08:33N 54°51' W 005°48'1312.8
2014-Jul-20 07:33N 54°57' W 005°28'1515.1
2014-Jul-20 06:33N 54°59' W 005°02'1 1.2
2014-Jul-20 05:33N 54°58' W 005°01'0 0.0
2014-Jul-20 04:34N 54°58' W 005°01'0 0.0
2014-Jul-20 03:31N 54°58' W 005°01'0 0.0
2014-Jul-20 02:33N 54°58' W 005°01'0 0.0
2014-Jul-20 01:33N 54°58' W 005°01'0 0.0
2014-Jul-20 00:30N 54°58' W 005°01'0 0.0
2014-Jul-19 23:33N 54°58' W 005°01'0 0.0
2014-Jul-19 22:33N 54°58' W 005°01'0 0.0
2014-Jul-19 21:33N 54°58' W 005°01'6 5.8
2014-Jul-19 20:31N 55°02' W 005°09'1718.0
2014-Jul-19 19:33N 54°55' W 005°36'8 7.5
2014-Jul-19 18:33N 54°51' W 005°48'0 0.0
2014-Jul-19 17:33N 54°51' W 005°48'1413.7
2014-Jul-19 16:33N 54°57' W 005°27'1514.7
2014-Jul-19 15:33N 54°58' W 005°01'0 0.3
2014-Jul-19 14:33N 54°58' W 005°01'1212.3
2014-Jul-19 13:32N 54°57' W 005°23'1616.2
2014-Jul-19 12:33N 54°51' W 005°48'0 0.1
2014-Jul-19 11:33N 54°51' W 005°48'1514.9
2014-Jul-19 10:33N 54°58' W 005°25'1413.8
2014-Jul-19 09:33N 54°58' W 005°01'0 0.0
2014-Jul-19 08:33N 54°58' W 005°01'1111.4
2014-Jul-19 07:33N 54°58' W 005°21'1716.8
2014-Jul-19 06:33N 54°51' W 005°48'0 0.4
2014-Jul-19 05:33N 54°51' W 005°48'3 2.9
2014-Jul-19 04:33N 54°53' W 005°44'2120.3
2014-Jul-19 03:31N 55°01' W 005°10'7 6.5
2014-Jul-19 02:30N 54°58' W 005°01'0 0.0
2014-Jul-19 01:34N 54°58' W 005°01'6 5.8
2014-Jul-19 00:32N 55°01' W 005°09'1717.0
2014-Jul-18 23:34N 54°54' W 005°35'8 8.3
2014-Jul-18 22:34N 54°51' W 005°48'0 0.0
2014-Jul-18 21:34N 54°51' W 005°48'4 4.3
2014-Jul-18 20:33N 54°53' W 005°42'1817.7
2014-Jul-18 19:33N 55°01' W 005°14'8 7.9
2014-Jul-18 18:33N 54°58' W 005°01'0 0.0
2014-Jul-18 17:33N 54°58' W 005°01'1312.5
2014-Jul-18 16:33N 54°58' W 005°23'1616.0
2014-Jul-18 15:34N 54°51' W 005°48'0 0.0
2014-Jul-18 14:33N 54°51' W 005°48'1615.6
2014-Jul-18 13:34N 54°58' W 005°24'1312.7
2014-Jul-18 12:31N 54°58' W 005°01'0 0.0
2014-Jul-18 11:33N 54°58' W 005°01'1211.9
2014-Jul-18 10:33N 54°58' W 005°22'1616.4
2014-Jul-18 09:33N 54°51' W 005°48'0 0.0
2014-Jul-18 08:33N 54°51' W 005°48'1414.4
2014-Jul-18 07:33N 54°58' W 005°26'1413.6
2014-Jul-18 06:30N 54°58' W 005°01'0 0.0
2014-Jul-18 05:33N 54°58' W 005°01'5 4.9
2014-Jul-18 04:31N 55°02' W 005°06'1919.7
2014-Jul-18 03:33N 54°54' W 005°37'7 7.2
2014-Jul-18 02:33N 54°51' W 005°48'0 0.0
2014-Jul-18 01:34N 54°51' W 005°48'5 4.7
2014-Jul-18 00:33N 54°53' W 005°41'1717.3
2014-Jul-17 23:33N 55°01' W 005°14'8 8.1
2014-Jul-17 22:33N 54°58' W 005°01'0 0.0
2014-Jul-17 21:32N 54°58' W 005°01'6 6.4
2014-Jul-17 20:33N 55°01' W 005°10'1717.1
2014-Jul-17 19:33N 54°54' W 005°37'7 7.1
2014-Jul-17 18:33N 54°51' W 005°48'0 0.0
2014-Jul-17 17:33N 54°51' W 005°48'1514.7
2014-Jul-17 16:33N 54°58' W 005°25'1414.0
2014-Jul-17 15:33N 54°58' W 005°01'0 0.0
2014-Jul-17 14:33N 54°58' W 005°01'1312.9
2014-Jul-17 13:33N 54°57' W 005°23'1515.4
2014-Jul-17 12:33N 54°51' W 005°48'0 0.0
2014-Jul-17 11:33N 54°51' W 005°48'1515.1
2014-Jul-17 10:34N 54°58' W 005°25'1413.5
2014-Jul-17 09:33N 54°58' W 005°01'0 0.1
2014-Jul-17 08:33N 54°58' W 005°01'1211.8
2014-Jul-17 07:33N 54°58' W 005°22'1616.3
2014-Jul-17 06:33N 54°51' W 005°48'0 0.1
2014-Jul-17 05:33N 54°51' W 005°48'4 4.1
2014-Jul-17 04:34N 54°53' W 005°42'2019.8
2014-Jul-17 03:33N 55°01' W 005°11'7 6.6
2014-Jul-17 02:33N 54°58' W 005°01'0 0.0
2014-Jul-17 01:33N 54°58' W 005°01'6 6.3
2014-Jul-17 00:32N 55°02' W 005°09'1616.8
2014-Jul-16 23:34N 54°54' W 005°34'9 8.5
2014-Jul-16 22:33N 54°51' W 005°48'0 0.0
2014-Jul-16 21:34N 54°51' W 005°48'3 3.2
2014-Jul-16 20:33N 54°53' W 005°44'1717.4
2014-Jul-16 19:33N 55°00' W 005°16'8 3.5
2014-Jul-16 17:15N 54°58' W 005°02'1115.5
2014-Jul-16 16:33N 54°58' W 005°21'1717.1
2014-Jul-16 15:33N 54°51' W 005°48'0 0.0
2014-Jul-16 14:33N 54°51' W 005°48'1514.9
2014-Jul-16 13:33N 54°58' W 005°25'1413.2
2014-Jul-16 12:30N 54°58' W 005°01'0 0.0
2014-Jul-16 11:34N 54°58' W 005°01'1111.1
2014-Jul-16 10:33N 54°58' W 005°20'1717.3
2014-Jul-16 09:34N 54°51' W 005°48'0 0.1
2014-Jul-16 08:33N 54°51' W 005°48'1413.7
2014-Jul-16 07:31N 54°58' W 005°26'1414.5
2014-Jul-16 06:32N 54°58' W 005°02'0 0.5
2014-Jul-16 05:33N 54°58' W 005°01'5 5.1
2014-Jul-16 04:34N 55°02' W 005°07'1817.7
2014-Jul-16 03:32N 54°54' W 005°36'8 7.9
2014-Jul-16 02:32N 54°51' W 005°48'0 0.0
2014-Jul-16 01:32N 54°51' W 005°48'3 3.2
2014-Jul-16 00:32N 54°53' W 005°43'1818.0
2014-Jul-15 23:33N 55°00' W 005°16'9 8.7
2014-Jul-15 22:33N 54°58' W 005°01'0 0.0
2014-Jul-15 21:33N 54°58' W 005°01'6 5.5
2014-Jul-15 20:33N 55°02' W 005°08'1717.3
2014-Jul-15 19:33N 54°55' W 005°35'8 8.2
2014-Jul-15 18:33N 54°51' W 005°48'0 0.0
2014-Jul-15 17:33N 54°51' W 005°48'1716.6
2014-Jul-15 16:33N 54°59' W 005°23'  
Track history (hours):
 
Tides and Currents Weather Stations Pressure Air Temp Water Temp Dewpoint Dewpoint Depression Visibility Wind Speed Wind Dir Waves Ship Positions

European Causeway

Operator: P & O Irish Sea

Last reported at 2014-Jul-25 15:29 UTC. Time now 2014-Jul-25 16:04 UTC.
Position N 54°58' W 005°01'.

Length 165 m; draft 5.5 m.

Type: Passenger vessel. MMSI: 311027000.

Date/timePositionNaut miles runAvg speedWind from/ knotsBaromVisibWave heightAir tempDewpointWater temp
2014-Jul-25 15:29N 54°58' W 005°01'0 0.0
2014-Jul-25 14:33N 54°58' W 005°01'1312.5
2014-Jul-25 13:33N 54°58' W 005°23'1615.9
2014-Jul-25 12:33N 54°51' W 005°48'0 0.1
2014-Jul-25 11:33N 54°51' W 005°48'1615.6
2014-Jul-25 10:33N 54°58' W 005°24'1311.6
2014-Jul-25 09:25N 54°58' W 005°01'0 0.0
2014-Jul-25 08:33N 54°58' W 005°01'1010.3
2014-Jul-25 07:33N 54°58' W 005°19'1817.7
2014-Jul-25 06:32N 54°51' W 005°48'0 0.2
2014-Jul-25 05:33N 54°51' W 005°48'6 6.1
2014-Jul-25 04:33N 54°54' W 005°39'2119.1
2014-Jul-25 03:28N 55°01' W 005°04'4 3.9
2014-Jul-25 02:33N 54°58' W 005°01'0 0.0
2014-Jul-25 01:33N 54°58' W 005°01'7 6.5
2014-Jul-25 00:32N 55°01' W 005°11'1717.9
2014-Jul-24 23:34N 54°54' W 005°39'6 5.4
2014-Jul-24 22:28N 54°51' W 005°48'0 0.0
2014-Jul-24 21:28N 54°51' W 005°48'5 5.6
2014-Jul-24 20:33N 54°54' W 005°40'1817.9
2014-Jul-24 19:34N 55°01' W 005°12'7 7.0
2014-Jul-24 18:30N 54°58' W 005°01'0 0.0
2014-Jul-24 17:33N 54°58' W 005°01'1211.9
2014-Jul-24 16:33N 54°58' W 005°22'1716.6
2014-Jul-24 15:34N 54°51' W 005°48'0 0.1
2014-Jul-24 14:33N 54°51' W 005°48'1514.7
2014-Jul-24 13:34N 54°58' W 005°26'1414.0
2014-Jul-24 12:33N 54°58' W 005°01'0 0.0
2014-Jul-24 11:33N 54°58' W 005°01'1212.2
2014-Jul-24 10:33N 54°58' W 005°22'1616.2
2014-Jul-24 09:34N 54°51' W 005°48'0 0.1
2014-Jul-24 08:33N 54°51' W 005°48'1514.6
2014-Jul-24 07:33N 54°58' W 005°26'1413.7
2014-Jul-24 06:32N 54°58' W 005°01'0 0.0
2014-Jul-24 05:33N 54°58' W 005°01'5 5.1
2014-Jul-24 04:33N 55°02' W 005°07'1818.0
2014-Jul-24 03:33N 54°54' W 005°35'8 8.0
2014-Jul-24 02:33N 54°51' W 005°48'0 0.0
2014-Jul-24 01:33N 54°51' W 005°48'6 5.9
2014-Jul-24 00:33N 54°54' W 005°39'1818.0
2014-Jul-23 23:34N 55°02' W 005°11'7 7.0
2014-Jul-23 22:33N 54°58' W 005°01'0 0.0
2014-Jul-23 21:31N 54°58' W 005°01'5 5.7
2014-Jul-23 20:33N 55°01' W 005°08'1717.3
2014-Jul-23 19:33N 54°54' W 005°35'8 7.8
2014-Jul-23 18:32N 54°51' W 005°48'0 0.0
2014-Jul-23 17:33N 54°51' W 005°48'1514.7
2014-Jul-23 16:33N 54°58' W 005°25'1414.0
2014-Jul-23 15:33N 54°58' W 005°01'0 0.1
2014-Jul-23 14:33N 54°58' W 005°01'1212.0
2014-Jul-23 13:33N 54°58' W 005°22'1616.3
2014-Jul-23 12:33N 54°51' W 005°48'0 0.1
2014-Jul-23 11:33N 54°51' W 005°48'1615.6
2014-Jul-23 10:34N 54°58' W 005°24'1312.9
2014-Jul-23 09:32N 54°58' W 005°01'0 0.0
2014-Jul-23 08:34N 54°58' W 005°01'1111.2
2014-Jul-23 07:33N 54°58' W 005°20'1717.1
2014-Jul-23 06:33N 54°51' W 005°48'0 0.1
2014-Jul-23 05:32N 54°51' W 005°48'6 6.0
2014-Jul-23 04:33N 54°54' W 005°39'2119.6
2014-Jul-23 03:30N 55°02' W 005°06'5 5.0
2014-Jul-23 02:33N 54°58' W 005°01'0 0.0
2014-Jul-23 01:33N 54°58' W 005°01'5 5.5
2014-Jul-23 00:34N 55°02' W 005°08'1818.0
2014-Jul-22 23:33N 54°54' W 005°36'7 7.4
2014-Jul-22 22:33N 54°51' W 005°48'0 0.0
2014-Jul-22 21:33N 54°51' W 005°48'5 5.1
2014-Jul-22 20:33N 54°54' W 005°41'1817.8
2014-Jul-22 19:33N 55°03' W 005°14'9 6.9
2014-Jul-22 18:18N 54°58' W 005°01'0 0.1
2014-Jul-22 17:34N 54°58' W 005°01'1313.5
2014-Jul-22 16:33N 54°57' W 005°24'1514.9
2014-Jul-22 15:33N 54°51' W 005°48'1 1.0
2014-Jul-22 14:33N 54°52' W 005°48'1616.2
2014-Jul-22 13:33N 55°01' W 005°24'1413.2
2014-Jul-22 12:31N 54°58' W 005°01'0 0.4
2014-Jul-22 11:24N 54°58' W 005°02'1314.3
2014-Jul-22 10:31N 54°57' W 005°24'1516.0
2014-Jul-22 09:33N 54°51' W 005°48'0 0.1
2014-Jul-22 08:33N 54°51' W 005°48'1313.1
2014-Jul-22 07:34N 54°57' W 005°28'1514.9
2014-Jul-22 06:33N 54°58' W 005°02'1 1.0
2014-Jul-22 05:30N 54°58' W 005°01'5 5.1
2014-Jul-22 04:31N 55°02' W 005°07'1617.1
2014-Jul-22 03:34N 54°55' W 005°33'10 9.7
2014-Jul-22 02:33N 54°51' W 005°48'0 0.0
2014-Jul-22 01:33N 54°51' W 005°48'5 5.4
2014-Jul-22 00:33N 54°54' W 005°40'1817.5
2014-Jul-21 23:33N 55°01' W 005°12'7 7.3
2014-Jul-21 22:33N 54°58' W 005°01'0 0.0
2014-Jul-21 21:33N 54°58' W 005°01'6 6.2
2014-Jul-21 20:34N 55°01' W 005°10'517.6
2014-Jul-21 20:18N 54°59' W 005°17'1317.2
2014-Jul-21 19:33N 54°54' W 005°37'7 7.0
2014-Jul-21 18:33N 54°51' W 005°48'3 2.8
2014-Jul-21 17:33N 54°53' W 005°44'2221.9
2014-Jul-21 16:33N 55°02' W 005°10'7 6.3
2014-Jul-21 15:32N 54°58' W 005°01'0 0.0
2014-Jul-21 14:33N 54°58' W 005°01'1312.6
2014-Jul-21 13:34N 54°58' W 005°23'1616.0
2014-Jul-21 12:34N 54°51' W 005°48'0 0.0
2014-Jul-21 11:33N 54°51' W 005°48'1615.5
2014-Jul-21 10:34N 54°59' W 005°25'1413.2
2014-Jul-21 09:31N 54°58' W 005°01'0 0.0
2014-Jul-21 08:34N 54°58' W 005°01'1212.3
2014-Jul-21 07:34N 54°58' W 005°22'1616.2
2014-Jul-21 06:33N 54°51' W 005°48'0 0.0
2014-Jul-21 05:33N 54°51' W 005°48'2 2.3
2014-Jul-21 04:33N 54°52' W 005°45'2020.2
2014-Jul-21 03:33N 55°01' W 005°13'8 7.7
2014-Jul-21 02:33N 54°58' W 005°01'0 0.0
2014-Jul-21 01:33N 54°58' W 005°01'0 0.0
2014-Jul-21 00:34N 54°58' W 005°01'6 5.8
2014-Jul-20 23:33N 55°01' W 005°09'1817.6
2014-Jul-20 22:33N 54°54' W 005°37'7 7.2
2014-Jul-20 21:33N 54°51' W 005°48'4 3.8
2014-Jul-20 20:34N 54°53' W 005°43'1818.0
2014-Jul-20 19:33N 55°01' W 005°14'8 8.3
2014-Jul-20 18:33N 54°58' W 005°01'0 0.0
2014-Jul-20 17:33N 54°58' W 005°01'1312.6
2014-Jul-20 16:33N 54°57' W 005°23'1615.7
2014-Jul-20 15:33N 54°51' W 005°48'0 0.0
2014-Jul-20 14:34N 54°51' W 005°48'1414.3
2014-Jul-20 13:33N 54°58' W 005°26'1414.0
2014-Jul-20 12:32N 54°58' W 005°01'0 0.1
2014-Jul-20 11:33N 54°58' W 005°01'1212.4
2014-Jul-20 10:33N 54°58' W 005°23'1615.9
2014-Jul-20 09:33N 54°51' W 005°48'0 0.0
2014-Jul-20 08:33N 54°51' W 005°48'1312.8
2014-Jul-20 07:33N 54°57' W 005°28'1515.1
2014-Jul-20 06:33N 54°59' W 005°02'1 1.2
2014-Jul-20 05:33N 54°58' W 005°01'0 0.0
2014-Jul-20 04:34N 54°58' W 005°01'0 0.0
2014-Jul-20 03:31N 54°58' W 005°01'0 0.0
2014-Jul-20 02:33N 54°58' W 005°01'0 0.0
2014-Jul-20 01:33N 54°58' W 005°01'0 0.0
2014-Jul-20 00:30N 54°58' W 005°01'0 0.0
2014-Jul-19 23:33N 54°58' W 005°01'0 0.0
2014-Jul-19 22:33N 54°58' W 005°01'0 0.0
2014-Jul-19 21:33N 54°58' W 005°01'6 5.8
2014-Jul-19 20:31N 55°02' W 005°09'1718.0
2014-Jul-19 19:33N 54°55' W 005°36'8 7.5
2014-Jul-19 18:33N 54°51' W 005°48'0 0.0
2014-Jul-19 17:33N 54°51' W 005°48'1413.7
2014-Jul-19 16:33N 54°57' W 005°27'1514.7
2014-Jul-19 15:33N 54°58' W 005°01'0 0.3
2014-Jul-19 14:33N 54°58' W 005°01'1212.3
2014-Jul-19 13:32N 54°57' W 005°23'1616.2
2014-Jul-19 12:33N 54°51' W 005°48'0 0.1
2014-Jul-19 11:33N 54°51' W 005°48'1514.9
2014-Jul-19 10:33N 54°58' W 005°25'1413.8
2014-Jul-19 09:33N 54°58' W 005°01'0 0.0
2014-Jul-19 08:33N 54°58' W 005°01'1111.4
2014-Jul-19 07:33N 54°58' W 005°21'1716.8
2014-Jul-19 06:33N 54°51' W 005°48'0 0.4
2014-Jul-19 05:33N 54°51' W 005°48'3 2.9
2014-Jul-19 04:33N 54°53' W 005°44'2120.3
2014-Jul-19 03:31N 55°01' W 005°10'7 6.5
2014-Jul-19 02:30N 54°58' W 005°01'0 0.0
2014-Jul-19 01:34N 54°58' W 005°01'6 5.8
2014-Jul-19 00:32N 55°01' W 005°09'1717.0
2014-Jul-18 23:34N 54°54' W 005°35'8 8.3
2014-Jul-18 22:34N 54°51' W 005°48'0 0.0
2014-Jul-18 21:34N 54°51' W 005°48'4 4.3
2014-Jul-18 20:33N 54°53' W 005°42'1817.7
2014-Jul-18 19:33N 55°01' W 005°14'8 7.9
2014-Jul-18 18:33N 54°58' W 005°01'0 0.0
2014-Jul-18 17:33N 54°58' W 005°01'1312.5
2014-Jul-18 16:33N 54°58' W 005°23'1616.0
2014-Jul-18 15:34N 54°51' W 005°48'0 0.0
2014-Jul-18 14:33N 54°51' W 005°48'1615.6
2014-Jul-18 13:34N 54°58' W 005°24'1312.7
2014-Jul-18 12:31N 54°58' W 005°01'0 0.0
2014-Jul-18 11:33N 54°58' W 005°01'1211.9
2014-Jul-18 10:33N 54°58' W 005°22'1616.4
2014-Jul-18 09:33N 54°51' W 005°48'0 0.0
2014-Jul-18 08:33N 54°51' W 005°48'1414.4
2014-Jul-18 07:33N 54°58' W 005°26'1413.6
2014-Jul-18 06:30N 54°58' W 005°01'0 0.0
2014-Jul-18 05:33N 54°58' W 005°01'5 4.9
2014-Jul-18 04:31N 55°02' W 005°06'1919.7
2014-Jul-18 03:33N 54°54' W 005°37'7 7.2
2014-Jul-18 02:33N 54°51' W 005°48'0 0.0
2014-Jul-18 01:34N 54°51' W 005°48'5 4.7
2014-Jul-18 00:33N 54°53' W 005°41'1717.3
2014-Jul-17 23:33N 55°01' W 005°14'8 8.1
2014-Jul-17 22:33N 54°58' W 005°01'0 0.0
2014-Jul-17 21:32N 54°58' W 005°01'6 6.4
2014-Jul-17 20:33N 55°01' W 005°10'1717.1
2014-Jul-17 19:33N 54°54' W 005°37'7 7.1
2014-Jul-17 18:33N 54°51' W 005°48'0 0.0
2014-Jul-17 17:33N 54°51' W 005°48'1514.7
2014-Jul-17 16:33N 54°58' W 005°25'1414.0
2014-Jul-17 15:33N 54°58' W 005°01'0 0.0
2014-Jul-17 14:33N 54°58' W 005°01'1312.9
2014-Jul-17 13:33N 54°57' W 005°23'1515.4
2014-Jul-17 12:33N 54°51' W 005°48'0 0.0
2014-Jul-17 11:33N 54°51' W 005°48'1515.1
2014-Jul-17 10:34N 54°58' W 005°25'1413.5
2014-Jul-17 09:33N 54°58' W 005°01'0 0.1
2014-Jul-17 08:33N 54°58' W 005°01'1211.8
2014-Jul-17 07:33N 54°58' W 005°22'1616.3
2014-Jul-17 06:33N 54°51' W 005°48'0 0.1
2014-Jul-17 05:33N 54°51' W 005°48'4 4.1
2014-Jul-17 04:34N 54°53' W 005°42'2019.8
2014-Jul-17 03:33N 55°01' W 005°11'7 6.6
2014-Jul-17 02:33N 54°58' W 005°01'0 0.0
2014-Jul-17 01:33N 54°58' W 005°01'6 6.3
2014-Jul-17 00:32N 55°02' W 005°09'1616.8
2014-Jul-16 23:34N 54°54' W 005°34'9 8.5
2014-Jul-16 22:33N 54°51' W 005°48'0 0.0
2014-Jul-16 21:34N 54°51' W 005°48'3 3.2
2014-Jul-16 20:33N 54°53' W 005°44'1717.4
2014-Jul-16 19:33N 55°00' W 005°16'8 3.5
2014-Jul-16 17:15N 54°58' W 005°02'1115.5
2014-Jul-16 16:33N 54°58' W 005°21'1717.1
2014-Jul-16 15:33N 54°51' W 005°48'0 0.0
2014-Jul-16 14:33N 54°51' W 005°48'1514.9
2014-Jul-16 13:33N 54°58' W 005°25'1413.2
2014-Jul-16 12:30N 54°58' W 005°01'0 0.0
2014-Jul-16 11:34N 54°58' W 005°01'1111.1
2014-Jul-16 10:33N 54°58' W 005°20'1717.3
2014-Jul-16 09:34N 54°51' W 005°48'0 0.1
2014-Jul-16 08:33N 54°51' W 005°48'1413.7
2014-Jul-16 07:31N 54°58' W 005°26'1414.5
2014-Jul-16 06:32N 54°58' W 005°02'0 0.5
2014-Jul-16 05:33N 54°58' W 005°01'5 5.1
2014-Jul-16 04:34N 55°02' W 005°07'1817.7
2014-Jul-16 03:32N 54°54' W 005°36'8 7.9
2014-Jul-16 02:32N 54°51' W 005°48'0 0.0
2014-Jul-16 01:32N 54°51' W 005°48'3 3.2
2014-Jul-16 00:32N 54°53' W 005°43'1818.0
2014-Jul-15 23:33N 55°00' W 005°16'9 8.7
2014-Jul-15 22:33N 54°58' W 005°01'0 0.0
2014-Jul-15 21:33N 54°58' W 005°01'6 5.5
2014-Jul-15 20:33N 55°02' W 005°08'1717.3
2014-Jul-15 19:33N 54°55' W 005°35'8 8.2
2014-Jul-15 18:33N 54°51' W 005°48'0 0.0
2014-Jul-15 17:33N 54°51' W 005°48'1716.6
2014-Jul-15 16:33N 54°59' W 005°23'  

Dump ship's entire track history